sensor_id;sensor_type;location;lat;lon;timestamp;pressure;altitude;pressure_sealevel;temperature;humidity
30614;BME280;17381;51.690;5.270;2023-05-01T00:02:26;101747.28;;;14.18;54.92
30614;BME280;17381;51.690;5.270;2023-05-01T00:05:24;101740.47;;;14.10;55.30
30614;BME280;17381;51.690;5.270;2023-05-01T00:08:16;101744.00;;;14.10;54.78
30614;BME280;17381;51.690;5.270;2023-05-01T00:11:00;101740.50;;;14.08;55.23
30614;BME280;17381;51.690;5.270;2023-05-01T00:13:53;101730.03;;;14.05;55.27
30614;BME280;17381;51.690;5.270;2023-05-01T00:16:28;101734.38;;;14.08;55.37
30614;BME280;17381;51.690;5.270;2023-05-01T00:19:12;101729.94;;;14.08;55.24
30614;BME280;17381;51.690;5.270;2023-05-01T00:29:39;101682.19;;;13.80;55.53
30614;BME280;17381;51.690;5.270;2023-05-01T00:32:49;101703.88;;;13.94;55.25
30614;BME280;17381;51.690;5.270;2023-05-01T00:35:51;101698.59;;;13.93;55.73
30614;BME280;17381;51.690;5.270;2023-05-01T00:38:50;101706.53;;;13.93;55.88
30614;BME280;17381;51.690;5.270;2023-05-01T00:41:19;101693.25;;;13.96;55.48
30614;BME280;17381;51.690;5.270;2023-05-01T00:43:48;101700.22;;;13.99;55.11
30614;BME280;17381;51.690;5.270;2023-05-01T00:54:04;101633.13;;;13.36;55.61
30614;BME280;17381;51.690;5.270;2023-05-01T00:56:39;101639.25;;;13.38;55.96
30614;BME280;17381;51.690;5.270;2023-05-01T00:59:29;101672.00;;;13.66;56.13
30614;BME280;17381;51.690;5.270;2023-05-01T01:02:48;101680.88;;;13.64;55.93
30614;BME280;17381;51.690;5.270;2023-05-01T01:14:24;101619.84;;;13.39;56.46
30614;BME280;17381;51.690;5.270;2023-05-01T01:28:52;101654.47;;;13.62;56.79
30614;BME280;17381;51.690;5.270;2023-05-01T01:35:36;101559.91;;;13.06;56.79
30614;BME280;17381;51.690;5.270;2023-05-01T01:38:47;101637.03;;;13.55;56.69
30614;BME280;17381;51.690;5.270;2023-05-01T01:41:47;101620.53;;;13.47;56.73
30614;BME280;17381;51.690;5.270;2023-05-01T01:44:59;101632.84;;;13.48;57.07
30614;BME280;17381;51.690;5.270;2023-05-01T01:47:47;101621.38;;;13.47;56.88
30614;BME280;17381;51.690;5.270;2023-05-01T01:50:44;101561.53;;;13.12;57.39
30614;BME280;17381;51.690;5.270;2023-05-01T01:53:39;101617.03;;;13.46;57.06
30614;BME280;17381;51.690;5.270;2023-05-01T01:56:27;101602.94;;;13.46;57.32
30614;BME280;17381;51.690;5.270;2023-05-01T01:59:06;101592.59;;;13.37;57.54
30614;BME280;17381;51.690;5.270;2023-05-01T02:01:58;101603.91;;;13.43;57.18
30614;BME280;17381;51.690;5.270;2023-05-01T02:04:47;101597.78;;;13.41;57.42
30614;BME280;17381;51.690;5.270;2023-05-01T02:08:21;101590.81;;;13.39;57.28
30614;BME280;17381;51.690;5.270;2023-05-01T02:10:47;101581.34;;;13.30;57.30
30614;BME280;17381;51.690;5.270;2023-05-01T02:13:32;101588.22;;;13.37;57.56
30614;BME280;17381;51.690;5.270;2023-05-01T02:16:24;101574.25;;;13.32;57.36
30614;BME280;17381;51.690;5.270;2023-05-01T02:19:20;101582.19;;;13.32;57.57
30614;BME280;17381;51.690;5.270;2023-05-01T02:29:46;101561.28;;;13.21;57.52
30614;BME280;17381;51.690;5.270;2023-05-01T02:35:43;101536.94;;;13.10;58.01
30614;BME280;17381;51.690;5.270;2023-05-01T02:38:23;101562.94;;;13.25;57.80
30614;BME280;17381;51.690;5.270;2023-05-01T02:41:12;101569.88;;;13.31;57.75
30614;BME280;17381;51.690;5.270;2023-05-01T02:47:53;101561.28;;;13.21;58.08
30614;BME280;17381;51.690;5.270;2023-05-01T02:50:55;101551.63;;;13.20;58.03
30614;BME280;17381;51.690;5.270;2023-05-01T02:53:43;101513.47;;;12.99;58.49
30614;BME280;17381;51.690;5.270;2023-05-01T02:56:33;101474.44;;;12.76;58.59
30614;BME280;17381;51.690;5.270;2023-05-01T02:59:16;101551.56;;;13.23;58.70
30614;BME280;17381;51.690;5.270;2023-05-01T03:02:06;101542.81;;;13.21;58.48
30614;BME280;17381;51.690;5.270;2023-05-01T03:04:51;101541.91;;;13.22;58.67
30614;BME280;17381;51.690;5.270;2023-05-01T03:08:14;101544.63;;;13.19;58.76
30614;BME280;17381;51.690;5.270;2023-05-01T03:19:06;101524.69;;;13.07;58.96
30614;BME280;17381;51.690;5.270;2023-05-01T03:22:15;101530.94;;;13.03;58.93
30614;BME280;17381;51.690;5.270;2023-05-01T03:25:02;101527.50;;;13.01;59.10
30614;BME280;17381;51.690;5.270;2023-05-01T03:27:47;101505.84;;;12.87;59.08
30614;BME280;17381;51.690;5.270;2023-05-01T03:37:50;101512.78;;;12.91;59.82
30614;BME280;17381;51.690;5.270;2023-05-01T03:44:15;101504.81;;;12.93;59.58
30614;BME280;17381;51.690;5.270;2023-05-01T03:48:01;101508.41;;;12.90;59.95
30614;BME280;17381;51.690;5.270;2023-05-01T03:51:13;101493.69;;;12.80;59.66
30614;BME280;17381;51.690;5.270;2023-05-01T03:54:15;101499.88;;;12.79;59.69
30614;BME280;17381;51.690;5.270;2023-05-01T03:57:36;101460.16;;;12.49;59.72
30614;BME280;17381;51.690;5.270;2023-05-01T04:00:47;101469.72;;;12.55;59.68
30614;BME280;17381;51.690;5.270;2023-05-01T04:03:29;101471.44;;;12.56;60.07
30614;BME280;17381;51.690;5.270;2023-05-01T04:06:09;101495.56;;;12.75;60.00
30614;BME280;17381;51.690;5.270;2023-05-01T04:08:46;101494.81;;;12.70;60.14
30614;BME280;17381;51.690;5.270;2023-05-01T04:11:26;101495.63;;;12.73;59.96
30614;BME280;17381;51.690;5.270;2023-05-01T04:14:35;101486.81;;;12.74;60.04
30614;BME280;17381;51.690;5.270;2023-05-01T04:17:33;101473.88;;;12.63;60.34
30614;BME280;17381;51.690;5.270;2023-05-01T04:20:21;101494.78;;;12.73;60.72
30614;BME280;17381;51.690;5.270;2023-05-01T04:23:02;101486.13;;;12.66;60.77
30614;BME280;17381;51.690;5.270;2023-05-01T04:25:52;101498.34;;;12.70;60.80
30614;BME280;17381;51.690;5.270;2023-05-01T04:34:46;101483.16;;;12.42;61.29
30614;BME280;17381;51.690;5.270;2023-05-01T04:38:04;101436.22;;;12.21;61.40
30614;BME280;17381;51.690;5.270;2023-05-01T04:44:18;101485.81;;;12.42;61.59
30614;BME280;17381;51.690;5.270;2023-05-01T04:48:01;101485.75;;;12.44;61.74
30614;BME280;17381;51.690;5.270;2023-05-01T04:51:09;101473.63;;;12.37;61.78
30614;BME280;17381;51.690;5.270;2023-05-01T04:54:04;101478.78;;;12.41;61.85
30614;BME280;17381;51.690;5.270;2023-05-01T04:56:49;101484.03;;;12.43;61.76
30614;BME280;17381;51.690;5.270;2023-05-01T04:59:42;101486.75;;;12.38;62.00
30614;BME280;17381;51.690;5.270;2023-05-01T05:02:18;101469.25;;;12.36;62.01
30614;BME280;17381;51.690;5.270;2023-05-01T05:05:10;101493.66;;;12.44;62.19
30614;BME280;17381;51.690;5.270;2023-05-01T05:08:08;101484.06;;;12.41;62.06
30614;BME280;17381;51.690;5.270;2023-05-01T05:11:03;101475.34;;;12.39;62.10
30614;BME280;17381;51.690;5.270;2023-05-01T05:14:10;101481.53;;;12.37;62.13
30614;BME280;17381;51.690;5.270;2023-05-01T05:16:59;101435.66;;;12.07;62.02
30614;BME280;17381;51.690;5.270;2023-05-01T05:19:49;101478.06;;;12.35;62.33
30614;BME280;17381;51.690;5.270;2023-05-01T05:22:53;101483.28;;;12.36;62.13
30614;BME280;17381;51.690;5.270;2023-05-01T05:25:31;101487.75;;;12.34;62.46
30614;BME280;17381;51.690;5.270;2023-05-01T05:28:11;101477.13;;;12.37;62.43
30614;BME280;17381;51.690;5.270;2023-05-01T05:30:43;101448.66;;;12.14;62.52
30614;BME280;17381;51.690;5.270;2023-05-01T05:33:25;101482.41;;;12.37;62.58
30614;BME280;17381;51.690;5.270;2023-05-01T05:35:57;101484.13;;;12.38;62.55
30614;BME280;17381;51.690;5.270;2023-05-01T05:38:47;101472.91;;;12.30;62.84
30614;BME280;17381;51.690;5.270;2023-05-01T05:41:36;101482.34;;;12.39;62.57
30614;BME280;17381;51.690;5.270;2023-05-01T05:44:09;101466.66;;;12.34;62.58
30614;BME280;17381;51.690;5.270;2023-05-01T05:46:48;101478.72;;;12.44;62.53
30614;BME280;17381;51.690;5.270;2023-05-01T05:49:30;101470.84;;;12.43;62.59
30614;BME280;17381;51.690;5.270;2023-05-01T06:07:49;101468.88;;;12.53;62.08
30614;BME280;17381;51.690;5.270;2023-05-01T06:10:50;101455.69;;;12.53;62.08
30614;BME280;17381;51.690;5.270;2023-05-01T06:13:42;101463.50;;;12.57;62.24
30614;BME280;17381;51.690;5.270;2023-05-01T06:19:48;101478.13;;;12.69;62.06
30614;BME280;17381;51.690;5.270;2023-05-01T06:22:33;101424.97;;;12.50;62.12
30614;BME280;17381;51.690;5.270;2023-05-01T06:25:15;101474.44;;;12.76;62.04
30614;BME280;17381;51.690;5.270;2023-05-01T06:27:53;101471.63;;;12.84;62.34
30614;BME280;17381;51.690;5.270;2023-05-01T06:30:42;101474.06;;;12.92;62.22
30614;BME280;17381;51.690;5.270;2023-05-01T06:33:36;101460.91;;;12.90;62.19
30614;BME280;17381;51.690;5.270;2023-05-01T06:39:58;101468.41;;;13.07;62.40
30614;BME280;17381;51.690;5.270;2023-05-01T06:46:28;101461.75;;;13.26;62.38
30614;BME280;17381;51.690;5.270;2023-05-01T06:49:05;101462.34;;;13.38;62.17
30614;BME280;17381;51.690;5.270;2023-05-01T06:51:58;101450.75;;;13.42;62.29
30614;BME280;17381;51.690;5.270;2023-05-01T06:54:43;101458.47;;;13.49;61.84
30614;BME280;17381;51.690;5.270;2023-05-01T06:57:40;101460.97;;;13.56;61.91
30614;BME280;17381;51.690;5.270;2023-05-01T07:00:44;101406.91;;;13.36;61.74
30614;BME280;17381;51.690;5.270;2023-05-01T07:03:26;101447.25;;;13.72;61.65
30614;BME280;17381;51.690;5.270;2023-05-01T07:06:26;101455.59;;;13.88;61.50
30614;BME280;17381;51.690;5.270;2023-05-01T07:09:24;101443.25;;;13.89;60.86
30614;BME280;17381;51.690;5.270;2023-05-01T07:27:38;101459.53;;;14.61;59.92
30614;BME280;17381;51.690;5.270;2023-05-01T07:31:00;101453.13;;;14.68;59.22
30614;BME280;17381;51.690;5.270;2023-05-01T07:33:51;101447.78;;;14.70;58.90
30614;BME280;17381;51.690;5.270;2023-05-01T07:36:33;101459.69;;;14.83;58.96
30614;BME280;17381;51.690;5.270;2023-05-01T07:39:32;101456.03;;;14.87;58.62
30614;BME280;17381;51.690;5.270;2023-05-01T07:42:20;101464.25;;;15.04;58.81
30614;BME280;17381;51.690;5.270;2023-05-01T07:45:11;101455.06;;;15.15;58.81
30614;BME280;17381;51.690;5.270;2023-05-01T07:51:08;101462.09;;;15.41;58.13
30614;BME280;17381;51.690;5.270;2023-05-01T07:54:04;101454.84;;;15.46;57.61
30614;BME280;17381;51.690;5.270;2023-05-01T07:57:09;101460.56;;;15.59;57.04
30614;BME280;17381;51.690;5.270;2023-05-01T08:00:02;101453.31;;;15.64;56.76
30614;BME280;17381;51.690;5.270;2023-05-01T08:02:47;101451.91;;;15.79;57.04
30614;BME280;17381;51.690;5.270;2023-05-01T08:05:27;101459.31;;;15.92;57.17
30614;BME280;17381;51.690;5.270;2023-05-01T08:08:18;101450.84;;;16.06;57.00
30614;BME280;17381;51.690;5.270;2023-05-01T08:11:10;101455.56;;;16.22;57.10
30614;BME280;17381;51.690;5.270;2023-05-01T08:13:55;101448.06;;;16.31;56.36
30614;BME280;17381;51.690;5.270;2023-05-01T08:16:44;101446.59;;;16.46;56.21
30614;BME280;17381;51.690;5.270;2023-05-01T08:19:17;101446.97;;;16.59;56.29
30614;BME280;17381;51.690;5.270;2023-05-01T08:22:00;101445.66;;;16.69;56.04
30614;BME280;17381;51.690;5.270;2023-05-01T08:24:50;101443.47;;;16.81;55.72
30614;BME280;17381;51.690;5.270;2023-05-01T08:27:39;101444.78;;;16.91;55.00
30614;BME280;17381;51.690;5.270;2023-05-01T08:30:32;101445.41;;;16.97;53.82
30614;BME280;17381;51.690;5.270;2023-05-01T08:33:20;101445.59;;;16.93;52.59
30614;BME280;17381;51.690;5.270;2023-05-01T08:36:00;101440.94;;;16.98;53.21
30614;BME280;17381;51.690;5.270;2023-05-01T08:38:42;101454.75;;;17.06;53.67
30614;BME280;17381;51.690;5.270;2023-05-01T08:41:19;101452.50;;;17.17;53.41
30614;BME280;17381;51.690;5.270;2023-05-01T08:44:24;101448.56;;;17.26;53.19
30614;BME280;17381;51.690;5.270;2023-05-01T08:47:18;101448.31;;;17.32;52.05
30614;BME280;17381;51.690;5.270;2023-05-01T08:50:00;101421.44;;;17.19;51.36
30614;BME280;17381;51.690;5.270;2023-05-01T08:52:46;101417.88;;;17.19;50.63
30614;BME280;17381;51.690;5.270;2023-05-01T08:55:42;101439.59;;;17.49;51.08
30614;BME280;17381;51.690;5.270;2023-05-01T08:58:34;101450.22;;;17.68;50.43
30614;BME280;17381;51.690;5.270;2023-05-01T09:01:31;101447.31;;;17.74;50.54
30614;BME280;17381;51.690;5.270;2023-05-01T09:04:39;101448.84;;;17.80;50.90
30614;BME280;17381;51.690;5.270;2023-05-01T09:07:26;101440.03;;;17.78;51.69
30614;BME280;17381;51.690;5.270;2023-05-01T09:10:06;101408.84;;;17.62;51.35
30614;BME280;17381;51.690;5.270;2023-05-01T09:13:03;101440.72;;;17.83;51.45
30614;BME280;17381;51.690;5.270;2023-05-01T09:15:56;101394.75;;;17.41;50.91
30614;BME280;17381;51.690;5.270;2023-05-01T09:19:07;101450.03;;;17.73;51.34
30614;BME280;17381;51.690;5.270;2023-05-01T09:21:58;101419.66;;;17.39;51.44
30614;BME280;17381;51.690;5.270;2023-05-01T09:24:42;101457.00;;;17.56;51.50
30614;BME280;17381;51.690;5.270;2023-05-01T09:27:19;101417.78;;;17.22;52.39
30614;BME280;17381;51.690;5.270;2023-05-01T09:30:00;101468.81;;;17.49;52.43
30614;BME280;17381;51.690;5.270;2023-05-01T09:40:29;101467.94;;;17.30;52.14
30614;BME280;17381;51.690;5.270;2023-05-01T09:51:30;101462.53;;;17.31;53.00
30614;BME280;17381;51.690;5.270;2023-05-01T09:54:21;101462.78;;;17.46;53.33
30614;BME280;17381;51.690;5.270;2023-05-01T09:57:06;101473.16;;;17.71;53.27
30614;BME280;17381;51.690;5.270;2023-05-01T10:00:06;101480.63;;;17.83;52.92
30614;BME280;17381;51.690;5.270;2023-05-01T10:02:49;101443.06;;;17.70;52.97
30614;BME280;17381;51.690;5.270;2023-05-01T10:05:49;101475.94;;;18.07;52.91
30614;BME280;17381;51.690;5.270;2023-05-01T10:08:57;101476.19;;;18.58;52.43
30614;BME280;17381;51.690;5.270;2023-05-01T10:15:40;101465.47;;;19.13;50.57
30614;BME280;17381;51.690;5.270;2023-05-01T10:22:32;101476.06;;;19.65;49.41
30614;BME280;17381;51.690;5.270;2023-05-01T10:25:51;101480.75;;;19.77;49.19
30614;BME280;17381;51.690;5.270;2023-05-01T10:28:33;101474.91;;;20.02;50.04
30614;BME280;17381;51.690;5.270;2023-05-01T10:31:14;101477.78;;;20.31;49.99
30614;BME280;17381;51.690;5.270;2023-05-01T10:34:12;101473.78;;;20.70;48.72
30614;BME280;17381;51.690;5.270;2023-05-01T10:37:17;101480.38;;;20.95;48.83
30614;BME280;17381;51.690;5.270;2023-05-01T10:44:00;101476.81;;;21.40;46.15
30614;BME280;17381;51.690;5.270;2023-05-01T10:46:59;101443.09;;;21.07;46.73
30614;BME280;17381;51.690;5.270;2023-05-01T10:50:13;101481.63;;;21.33;46.20
30614;BME280;17381;51.690;5.270;2023-05-01T10:56:02;101493.03;;;21.21;45.84
30614;BME280;17381;51.690;5.270;2023-05-01T10:59:02;101487.31;;;21.13;45.81
30614;BME280;17381;51.690;5.270;2023-05-01T11:08:50;101483.59;;;21.16;45.18
30614;BME280;17381;51.690;5.270;2023-05-01T11:11:52;101483.25;;;21.36;45.32
30614;BME280;17381;51.690;5.270;2023-05-01T11:18:32;101472.78;;;22.05;44.00
30614;BME280;17381;51.690;5.270;2023-05-01T11:21:27;101482.50;;;22.20;44.70
30614;BME280;17381;51.690;5.270;2023-05-01T11:24:35;101495.66;;;22.37;44.04
30614;BME280;17381;51.690;5.270;2023-05-01T11:37:45;101491.88;;;23.08;41.41
30614;BME280;17381;51.690;5.270;2023-05-01T11:42:56;101489.66;;;23.54;40.86
30614;BME280;17381;51.690;5.270;2023-05-01T11:49:27;101486.13;;;23.91;40.41
30614;BME280;17381;51.690;5.270;2023-05-01T11:51:57;101486.63;;;24.09;38.68
30614;BME280;17381;51.690;5.270;2023-05-01T12:00:14;101491.72;;;23.88;39.15
30614;BME280;17381;51.690;5.270;2023-05-01T12:03:23;101485.03;;;23.94;39.00
30614;BME280;17381;51.690;5.270;2023-05-01T12:06:17;101497.50;;;23.82;37.11
30614;BME280;17381;51.690;5.270;2023-05-01T12:09:46;101488.47;;;23.45;37.50
30614;BME280;17381;51.690;5.270;2023-05-01T12:12:36;101490.59;;;23.14;38.02
30614;BME280;17381;51.690;5.270;2023-05-01T12:15:25;101502.16;;;23.02;39.36
30614;BME280;17381;51.690;5.270;2023-05-01T12:18:00;101493.25;;;22.74;40.33
30614;BME280;17381;51.690;5.270;2023-05-01T12:20:46;101498.13;;;22.55;40.64
30614;BME280;17381;51.690;5.270;2023-05-01T12:23:14;101497.91;;;22.31;41.26
30614;BME280;17381;51.690;5.270;2023-05-01T12:25:47;101501.25;;;22.06;41.53
30614;BME280;17381;51.690;5.270;2023-05-01T12:28:23;101502.41;;;21.73;40.55
30614;BME280;17381;51.690;5.270;2023-05-01T12:31:05;101499.81;;;21.43;41.22
30614;BME280;17381;51.690;5.270;2023-05-01T12:33:34;101509.09;;;21.21;39.50
30614;BME280;17381;51.690;5.270;2023-05-01T12:36:13;101508.41;;;20.87;39.21
30614;BME280;17381;51.690;5.270;2023-05-01T12:39:04;101469.50;;;20.36;38.69
30614;BME280;17381;51.690;5.270;2023-05-01T12:41:42;101502.84;;;20.29;40.00
30614;BME280;17381;51.690;5.270;2023-05-01T12:48:12;101498.25;;;19.99;42.81
30614;BME280;17381;51.690;5.270;2023-05-01T12:50:55;101505.53;;;19.79;42.55
30614;BME280;17381;51.690;5.270;2023-05-01T12:53:52;101477.50;;;19.37;41.32
30614;BME280;17381;51.690;5.270;2023-05-01T12:57:27;101461.06;;;19.12;42.15
30614;BME280;17381;51.690;5.270;2023-05-01T13:01:02;101501.50;;;19.20;43.11
30614;BME280;17381;51.690;5.270;2023-05-01T13:04:03;101507.84;;;19.17;43.95
30614;BME280;17381;51.690;5.270;2023-05-01T13:06:55;101499.31;;;19.11;43.47
30614;BME280;17381;51.690;5.270;2023-05-01T13:10:12;101480.50;;;18.96;43.82
30614;BME280;17381;51.690;5.270;2023-05-01T13:13:16;101499.88;;;19.00;44.23
30614;BME280;17381;51.690;5.270;2023-05-01T13:16:19;101495.22;;;18.86;43.70
30614;BME280;17381;51.690;5.270;2023-05-01T13:19:13;101486.94;;;18.73;44.24
30614;BME280;17381;51.690;5.270;2023-05-01T13:22:44;101492.59;;;18.67;44.83
30614;BME280;17381;51.690;5.270;2023-05-01T13:25:28;101490.47;;;18.57;45.42
30614;BME280;17381;51.690;5.270;2023-05-01T13:28:30;101493.03;;;18.58;45.82
30614;BME280;17381;51.690;5.270;2023-05-01T13:31:37;101487.78;;;18.57;46.39
30614;BME280;17381;51.690;5.270;2023-05-01T13:34:43;101478.75;;;18.42;46.30
30614;BME280;17381;51.690;5.270;2023-05-01T13:38:08;101501.00;;;18.41;46.97
30614;BME280;17381;51.690;5.270;2023-05-01T13:41:24;101503.78;;;18.38;47.63
30614;BME280;17381;51.690;5.270;2023-05-01T13:44:33;101465.88;;;18.14;47.28
30614;BME280;17381;51.690;5.270;2023-05-01T13:47:39;101496.88;;;18.34;47.90
30614;BME280;17381;51.690;5.270;2023-05-01T13:53:07;101504.41;;;18.43;48.37
30614;BME280;17381;51.690;5.270;2023-05-01T13:55:49;101504.84;;;18.52;48.29
30614;BME280;17381;51.690;5.270;2023-05-01T14:01:54;101502.44;;;19.02;49.02
30614;BME280;17381;51.690;5.270;2023-05-01T14:04:37;101506.38;;;19.29;48.71
30614;BME280;17381;51.690;5.270;2023-05-01T14:07:51;101510.38;;;19.89;49.84
30614;BME280;17381;51.690;5.270;2023-05-01T14:10:34;101507.91;;;20.49;49.22
30614;BME280;17381;51.690;5.270;2023-05-01T14:13:29;101512.84;;;20.73;48.04
30614;BME280;17381;51.690;5.270;2023-05-01T14:16:27;101476.66;;;20.51;45.60
30614;BME280;17381;51.690;5.270;2023-05-01T14:19:13;101507.94;;;20.81;46.60
30614;BME280;17381;51.690;5.270;2023-05-01T14:21:59;101514.25;;;21.40;45.67
30614;BME280;17381;51.690;5.270;2023-05-01T14:24:38;101517.03;;;21.96;45.38
30614;BME280;17381;51.690;5.270;2023-05-01T14:27:35;101511.38;;;22.15;43.95
30614;BME280;17381;51.690;5.270;2023-05-01T14:30:44;101506.91;;;22.15;43.15
30614;BME280;17381;51.690;5.270;2023-05-01T14:33:54;101472.09;;;22.01;42.88
30614;BME280;17381;51.690;5.270;2023-05-01T14:36:59;101494.50;;;22.69;44.13
30614;BME280;17381;51.690;5.270;2023-05-01T14:40:03;101497.16;;;23.23;43.89
30614;BME280;17381;51.690;5.270;2023-05-01T14:42:57;101497.72;;;23.79;41.17
30614;BME280;17381;51.690;5.270;2023-05-01T14:49:49;101501.69;;;24.36;38.79
30614;BME280;17381;51.690;5.270;2023-05-01T14:53:09;101500.59;;;24.38;38.53
30614;BME280;17381;51.690;5.270;2023-05-01T14:56:24;101504.25;;;24.50;39.55
30614;BME280;17381;51.690;5.270;2023-05-01T14:59:14;101501.38;;;24.65;39.00
30614;BME280;17381;51.690;5.270;2023-05-01T15:02:07;101501.19;;;24.55;37.70
30614;BME280;17381;51.690;5.270;2023-05-01T15:05:20;101501.56;;;24.50;38.03
30614;BME280;17381;51.690;5.270;2023-05-01T15:08:28;101504.66;;;24.57;37.76
30614;BME280;17381;51.690;5.270;2023-05-01T15:11:20;101473.69;;;24.51;38.20
30614;BME280;17381;51.690;5.270;2023-05-01T15:14:19;101503.91;;;24.79;39.02
30614;BME280;17381;51.690;5.270;2023-05-01T15:17:15;101495.38;;;24.85;38.51
30614;BME280;17381;51.690;5.270;2023-05-01T15:20:11;101506.63;;;24.90;39.10
30614;BME280;17381;51.690;5.270;2023-05-01T15:23:04;101510.09;;;25.03;38.20
30614;BME280;17381;51.690;5.270;2023-05-01T15:25:48;101504.75;;;24.79;37.93
30614;BME280;17381;51.690;5.270;2023-05-01T15:28:53;101503.63;;;24.71;38.17
30614;BME280;17381;51.690;5.270;2023-05-01T15:31:34;101508.69;;;24.26;39.30
30614;BME280;17381;51.690;5.270;2023-05-01T15:34:19;101507.66;;;24.15;39.19
30614;BME280;17381;51.690;5.270;2023-05-01T15:37:16;101527.94;;;23.83;39.23
30614;BME280;17381;51.690;5.270;2023-05-01T15:40:18;101516.59;;;23.39;40.01
30614;BME280;17381;51.690;5.270;2023-05-01T15:43:06;101517.38;;;23.01;40.19
30614;BME280;17381;51.690;5.270;2023-05-01T15:45:38;101524.56;;;22.74;41.23
30614;BME280;17381;51.690;5.270;2023-05-01T15:48:31;101522.78;;;22.60;41.85
30614;BME280;17381;51.690;5.270;2023-05-01T15:51:36;101534.22;;;22.76;42.18
30614;BME280;17381;51.690;5.270;2023-05-01T15:54:41;101537.91;;;22.88;41.91
30614;BME280;17381;51.690;5.270;2023-05-01T15:57:29;101535.31;;;23.01;42.00
30614;BME280;17381;51.690;5.270;2023-05-01T16:00:05;101507.31;;;22.78;41.89
30614;BME280;17381;51.690;5.270;2023-05-01T16:02:35;101539.53;;;22.63;42.06
30614;BME280;17381;51.690;5.270;2023-05-01T16:05:04;101530.84;;;22.46;42.71
30614;BME280;17381;51.690;5.270;2023-05-01T16:07:46;101537.03;;;22.33;42.62
30614;BME280;17381;51.690;5.270;2023-05-01T16:10:18;101549.81;;;22.14;42.73
30614;BME280;17381;51.690;5.270;2023-05-01T16:12:55;101545.44;;;21.84;42.87
30614;BME280;17381;51.690;5.270;2023-05-01T16:15:22;101464.47;;;21.07;43.77
30614;BME280;17381;51.690;5.270;2023-05-01T16:18:04;101551.25;;;21.48;43.91
30614;BME280;17381;51.690;5.270;2023-05-01T16:20:44;101556.38;;;21.21;43.86
30614;BME280;17381;51.690;5.270;2023-05-01T16:23:13;101564.97;;;20.96;44.45
30614;BME280;17381;51.690;5.270;2023-05-01T16:25:50;101571.28;;;20.79;44.95
30614;BME280;17381;51.690;5.270;2023-05-01T16:28:22;101563.28;;;20.63;45.54
30614;BME280;17381;51.690;5.270;2023-05-01T16:31:01;101568.25;;;20.53;45.46
30614;BME280;17381;51.690;5.270;2023-05-01T16:33:29;101570.06;;;20.37;45.16
30614;BME280;17381;51.690;5.270;2023-05-01T16:36:09;101567.50;;;20.18;45.64
30614;BME280;17381;51.690;5.270;2023-05-01T16:38:47;101575.00;;;20.11;46.19
30614;BME280;17381;51.690;5.270;2023-05-01T16:41:19;101537.75;;;19.92;46.19
30614;BME280;17381;51.690;5.270;2023-05-01T16:43:45;101569.06;;;20.06;46.78
30614;BME280;17381;51.690;5.270;2023-05-01T16:46:19;101574.00;;;19.96;46.30
30614;BME280;17381;51.690;5.270;2023-05-01T16:48:56;101573.63;;;19.87;46.58
30614;BME280;17381;51.690;5.270;2023-05-01T16:51:29;101590.59;;;19.86;46.65
30614;BME280;17381;51.690;5.270;2023-05-01T16:54:07;101578.53;;;19.78;46.99
30614;BME280;17381;51.690;5.270;2023-05-01T16:56:33;101585.03;;;19.73;46.89
30614;BME280;17381;51.690;5.270;2023-05-01T16:59:05;101582.91;;;19.62;47.45
30614;BME280;17381;51.690;5.270;2023-05-01T17:01:33;101591.38;;;19.53;47.60
30614;BME280;17381;51.690;5.270;2023-05-01T17:04:00;101510.81;;;18.94;47.77
30614;BME280;17381;51.690;5.270;2023-05-01T17:06:36;101592.69;;;19.27;48.04
30614;BME280;17381;51.690;5.270;2023-05-01T17:09:05;101595.91;;;19.16;48.09
30614;BME280;17381;51.690;5.270;2023-05-01T17:11:56;101585.06;;;19.02;48.69
30614;BME280;17381;51.690;5.270;2023-05-01T17:14:34;101591.50;;;18.98;48.93
30614;BME280;17381;51.690;5.270;2023-05-01T17:17:12;101604.81;;;18.98;49.13
30614;BME280;17381;51.690;5.270;2023-05-01T17:19:58;101596.56;;;19.02;49.20
30614;BME280;17381;51.690;5.270;2023-05-01T17:22:35;101596.72;;;18.99;49.42
30614;BME280;17381;51.690;5.270;2023-05-01T17:25:04;101592.56;;;18.93;49.03
30614;BME280;17381;51.690;5.270;2023-05-01T17:27:30;101605.47;;;18.84;49.17
30614;BME280;17381;51.690;5.270;2023-05-01T17:30:01;101602.31;;;18.76;49.37
30614;BME280;17381;51.690;5.270;2023-05-01T17:32:43;101609.19;;;18.61;49.89
30614;BME280;17381;51.690;5.270;2023-05-01T17:35:09;101612.44;;;18.48;50.13
30614;BME280;17381;51.690;5.270;2023-05-01T17:37:36;101572.53;;;18.09;50.69
30614;BME280;17381;51.690;5.270;2023-05-01T17:40:11;101617.56;;;18.14;51.08
30614;BME280;17381;51.690;5.270;2023-05-01T17:42:43;101630.25;;;18.07;51.50
30614;BME280;17381;51.690;5.270;2023-05-01T17:45:15;101619.75;;;18.04;51.74
30614;BME280;17381;51.690;5.270;2023-05-01T17:48:19;101582.28;;;17.69;51.54
30614;BME280;17381;51.690;5.270;2023-05-01T17:50:48;101639.00;;;17.90;52.46
30614;BME280;17381;51.690;5.270;2023-05-01T17:56:35;101642.44;;;17.72;52.76
30614;BME280;17381;51.690;5.270;2023-05-01T17:59:01;101648.78;;;17.67;52.87
30614;BME280;17381;51.690;5.270;2023-05-01T18:01:33;101648.88;;;17.66;53.15
30614;BME280;17381;51.690;5.270;2023-05-01T18:04:28;101603.13;;;17.37;53.48
30614;BME280;17381;51.690;5.270;2023-05-01T18:07:08;101636.22;;;17.51;53.50
30614;BME280;17381;51.690;5.270;2023-05-01T18:09:39;101647.88;;;17.48;53.86
30614;BME280;17381;51.690;5.270;2023-05-01T18:12:15;101666.59;;;17.45;54.10
30614;BME280;17381;51.690;5.270;2023-05-01T18:14:47;101658.63;;;17.45;54.08
30614;BME280;17381;51.690;5.270;2023-05-01T18:17:34;101665.03;;;17.39;54.37